Time;durP1;ratioP1;P1;durP2;ratioP2;P2;SDS_P1;SDS_P2;PMS_P1;PMS_P2;Temp;Humidity;BMP_temperature;BMP_pressure;BME280_temperature;BME280_humidity;BME280_pressure;Samples;Min_cycle;Max_cycle;Signal;HPM_P1;HPM_P2
2021/06/07 00:01:19;;;;;;;13.68;12.27;;;;;;;20.45;64.22;99551.66;5113627;28;20544;-70
2021/06/07 00:03:45;;;;;;;16.00;13.05;;;;;;;20.41;64.32;99557.31;5113125;28;20054;-73
2021/06/07 00:06:11;;;;;;;13.77;12.38;;;;;;;20.41;64.01;99551.63;5111999;28;20473;-73
2021/06/07 00:08:37;;;;;;;15.48;11.98;;;;;;;20.38;63.99;99548.78;5112989;27;20031;-71
2021/06/07 00:11:03;;;;;;;13.65;11.52;;;;;;;20.34;64.11;99546.75;5113299;28;20496;-72
2021/06/07 00:13:29;;;;;;;14.60;11.43;;;;;;;20.19;64.65;99554.38;5113173;28;20035;-71
2021/06/07 00:15:56;;;;;;;14.38;11.32;;;;;;;20.18;64.02;99554.78;5111575;28;20031;-71
2021/06/07 00:18:23;;;;;;;14.57;12.20;;;;;;;20.05;64.43;99552.31;5113535;28;20045;-71
2021/06/07 00:21:03;;;;;;;18.05;11.95;;;;;;;19.93;64.70;99555.50;5112735;28;20032;-71
2021/06/07 00:23:29;;;;;;;14.68;11.60;;;;;;;19.94;64.98;99561.97;5111648;28;20023;-70
2021/06/07 00:25:56;;;;;;;15.70;11.98;;;;;;;19.91;65.47;99557.88;5111659;28;20116;-72
2021/06/07 00:28:22;;;;;;;15.25;12.55;;;;;;;19.74;65.58;99556.56;5112869;28;20052;-72
2021/06/07 00:30:47;;;;;;;18.65;12.05;;;;;;;19.46;66.30;99558.81;5112488;28;20169;-72
2021/06/07 00:33:14;;;;;;;14.00;12.07;;;;;;;19.17;67.80;99560.59;5112818;28;20530;-71
2021/06/07 00:35:40;;;;;;;13.73;12.27;;;;;;;18.92;68.46;99553.44;5109460;28;20394;-73
2021/06/07 00:38:05;;;;;;;15.35;13.30;;;;;;;18.82;69.10;99550.53;5104296;28;20032;-71
2021/06/07 00:40:31;;;;;;;22.52;13.95;;;;;;;18.88;69.80;99561.13;5098017;28;20044;-73
2021/06/07 00:42:58;;;;;;;22.17;13.93;;;;;;;19.07;69.19;99556.47;5100825;28;20047;-71
2021/06/07 00:45:30;;;;;;;15.30;13.50;;;;;;;19.10;69.08;99561.34;5111945;28;20530;-71
2021/06/07 00:47:58;;;;;;;16.00;13.50;;;;;;;19.10;69.25;99555.69;5101283;28;20062;-73
2021/06/07 00:50:36;;;;;;;38.70;15.13;;;;;;;19.15;69.46;99555.31;5111168;28;20122;-72
2021/06/07 00:53:05;;;;;;;17.08;14.27;;;;;;;19.21;69.16;99550.09;5112342;28;20023;-71
2021/06/07 00:55:37;;;;;;;15.00;12.48;;;;;;;19.39;68.99;99561.56;5112484;28;20028;-70
2021/06/07 00:58:05;;;;;;;15.70;14.02;;;;;;;19.54;68.37;99561.69;5112247;28;20512;-70
2021/06/07 01:00:31;;;;;;;23.90;13.50;;;;;;;19.65;67.68;99565.41;5104162;28;20032;-70
2021/06/07 01:02:58;;;;;;;15.30;13.57;;;;;;;19.68;67.50;99556.13;5106008;28;20111;-71
2021/06/07 01:05:26;;;;;;;15.45;13.18;;;;;;;19.79;66.81;99559.03;5110817;28;20324;-73
2021/06/07 01:07:53;;;;;;;16.50;13.30;;;;;;;19.90;66.73;99556.22;5111225;28;20285;-71
2021/06/07 01:10:18;;;;;;;17.00;14.18;;;;;;;19.96;66.60;99556.69;5111763;28;20443;-73
2021/06/07 01:12:44;;;;;;;14.80;12.90;;;;;;;20.05;66.26;99555.16;5111899;28;20024;-72
2021/06/07 01:15:11;;;;;;;16.23;13.52;;;;;;;20.11;65.98;99549.06;5110461;28;20051;-71
2021/06/07 01:17:37;;;;;;;15.23;13.25;;;;;;;20.16;65.43;99546.66;5110356;28;20027;-74
2021/06/07 01:20:05;;;;;;;16.08;12.55;;;;;;;20.18;65.28;99540.59;5111473;28;20028;-71
2021/06/07 01:22:31;;;;;;;21.45;13.25;;;;;;;20.09;65.36;99531.63;5110108;28;20039;-71
2021/06/07 01:24:56;;;;;;;14.18;12.15;;;;;;;19.95;65.12;99533.19;5110497;28;20016;-73
2021/06/07 01:27:23;;;;;;;19.58;13.95;;;;;;;19.73;67.20;99535.88;5110102;28;20047;-71
2021/06/07 01:29:48;;;;;;;15.32;13.15;;;;;;;19.81;67.24;99535.94;5111760;28;20121;-71
2021/06/07 01:32:14;;;;;;;16.77;15.27;;;;;;;19.95;66.81;99529.53;5112008;28;20067;-71
2021/06/07 01:34:40;;;;;;;14.23;12.90;;;;;;;20.02;66.00;99540.94;5111439;28;20054;-72
2021/06/07 01:37:06;;;;;;;15.55;13.63;;;;;;;20.05;66.18;99540.13;5110183;28;20073;-70
2021/06/07 01:39:32;;;;;;;19.58;12.93;;;;;;;20.04;66.29;99539.31;5111368;28;20023;-71
2021/06/07 01:41:57;;;;;;;16.35;14.07;;;;;;;20.10;66.15;99541.78;5111287;28;20105;-72
2021/06/07 01:44:23;;;;;;;20.33;14.23;;;;;;;20.10;65.88;99536.09;5111148;28;20481;-73
2021/06/07 01:46:49;;;;;;;15.90;13.00;;;;;;;20.02;65.93;99546.59;5111770;28;20032;-71
2021/06/07 01:49:15;;;;;;;17.27;13.80;;;;;;;19.92;65.94;99542.47;5110000;28;20036;-70
2021/06/07 01:51:41;;;;;;;17.70;12.48;;;;;;;19.82;66.13;99554.59;5109816;28;20020;-73
2021/06/07 01:54:07;;;;;;;16.33;12.98;;;;;;;19.68;66.69;99541.09;5109957;28;20054;-72
2021/06/07 01:56:33;;;;;;;22.17;13.23;;;;;;;19.45;67.66;99545.00;5111187;28;20032;-73
2021/06/07 01:58:59;;;;;;;16.75;14.60;;;;;;;19.12;68.74;99546.75;5109889;28;20036;-71
2021/06/07 02:01:25;;;;;;;15.43;13.15;;;;;;;18.99;69.55;99554.75;5109648;28;20036;-73
2021/06/07 02:03:51;;;;;;;16.75;14.07;;;;;;;19.01;69.52;99552.34;5111133;28;20034;-72
2021/06/07 02:06:25;;;;;;;18.35;13.40;;;;;;;18.82;69.99;99565.50;5110844;28;20023;-71
2021/06/07 02:08:51;;;;;;;16.48;14.10;;;;;;;18.82;70.07;99557.00;5111056;28;20019;-72
2021/06/07 02:11:24;;;;;;;15.75;13.48;;;;;;;18.80;70.01;99559.41;5111336;28;20463;-73
2021/06/07 02:13:51;;;;;;;19.55;14.80;;;;;;;18.44;71.27;99553.34;5111045;28;20020;-71
2021/06/07 02:16:19;;;;;;;17.80;15.40;;;;;;;18.43;71.89;99551.72;5111114;28;20114;-72
2021/06/07 02:18:45;;;;;;;23.65;16.23;;;;;;;18.46;71.94;99550.94;5110923;28;20031;-73
2021/06/07 02:21:11;;;;;;;21.02;16.70;;;;;;;18.70;71.30;99548.78;5109303;28;20034;-71
2021/06/07 02:23:37;;;;;;;18.23;14.85;;;;;;;18.79;70.79;99546.44;5109637;28;20085;-72
2021/06/07 02:26:04;;;;;;;17.38;14.82;;;;;;;18.76;70.50;99541.56;5110897;28;20042;-73
2021/06/07 02:28:29;;;;;;;18.02;15.88;;;;;;;18.87;70.55;99544.50;5110533;28;20047;-71
2021/06/07 02:30:56;;;;;;;27.30;14.73;;;;;;;19.07;70.29;99545.13;5109446;28;20031;-72
2021/06/07 02:33:21;;;;;;;21.90;15.60;;;;;;;19.17;69.71;99547.22;5110817;28;20031;-71
2021/06/07 02:35:47;;;;;;;18.63;15.52;;;;;;;19.11;70.04;99548.81;5109151;28;20028;-71
2021/06/07 02:38:13;;;;;;;17.15;14.90;;;;;;;18.99;70.19;99549.06;5109681;28;20059;-71
2021/06/07 02:40:42;;;;;;;23.77;14.57;;;;;;;18.67;71.57;99548.34;5109159;28;20081;-72
2021/06/07 02:43:09;;;;;;;25.65;15.10;;;;;;;18.55;71.87;99551.47;5109055;28;20023;-73
2021/06/07 02:45:34;;;;;;;18.17;15.93;;;;;;;18.60;71.76;99541.78;5109267;28;20060;-71
2021/06/07 02:48:01;;;;;;;25.83;15.80;;;;;;;18.74;71.72;99543.97;5110399;28;20485;-71
2021/06/07 02:50:35;;;;;;;19.73;16.40;;;;;;;18.83;71.54;99547.31;5109144;28;20039;-73
2021/06/07 02:53:01;;;;;;;21.20;15.65;;;;;;;18.93;71.29;99546.56;5109098;28;20129;-74
2021/06/07 02:55:30;;;;;;;28.25;16.33;;;;;;;19.01;70.83;99546.69;5110509;28;20047;-71
2021/06/07 02:57:57;;;;;;;20.65;16.27;;;;;;;19.08;70.56;99546.75;5109014;28;20030;-70
2021/06/07 03:00:45;;;;;;;25.23;16.60;;;;;;;19.04;70.69;99558.06;5109314;28;20051;-71
2021/06/07 03:03:14;;;;;;;23.75;15.70;;;;;;;19.04;70.77;99554.41;5108870;28;20023;-71
2021/06/07 03:05:41;;;;;;;19.92;15.75;;;;;;;19.12;70.59;99558.09;5110203;28;20516;-73
2021/06/07 03:08:09;;;;;;;21.23;16.05;;;;;;;19.17;70.40;99554.94;5110356;28;20489;-71
2021/06/07 03:10:35;;;;;;;23.92;16.20;;;;;;;19.21;70.01;99556.59;5110356;28;20038;-71
2021/06/07 03:13:01;;;;;;;23.95;14.57;;;;;;;19.36;69.29;99551.81;5109042;28;20023;-73
2021/06/07 03:15:28;;;;;;;20.17;15.20;;;;;;;19.36;69.08;99551.81;5108737;28;20119;-71
2021/06/07 03:17:55;;;;;;;25.00;15.10;;;;;;;19.32;68.69;99553.84;5110601;28;20024;-73
2021/06/07 03:20:26;;;;;;;24.52;16.30;;;;;;;19.27;69.02;99551.38;5108936;28;20054;-71
2021/06/07 03:22:58;;;;;;;20.23;14.65;;;;;;;19.05;69.99;99554.00;5108814;28;20019;-73
2021/06/07 03:25:24;;;;;;;17.58;14.80;;;;;;;18.88;70.74;99563.13;5110390;28;20036;-72
2021/06/07 03:27:50;;;;;;;23.38;15.88;;;;;;;18.63;72.03;99573.00;5108593;28;20055;-72
2021/06/07 03:30:16;;;;;;;25.92;17.15;;;;;;;18.44;72.55;99570.34;5110205;28;20039;-72
2021/06/07 03:32:42;;;;;;;24.35;17.88;;;;;;;18.60;72.49;99559.63;5112778;28;20327;-73
2021/06/07 03:35:10;;;;;;;22.48;17.48;;;;;;;18.76;71.84;99569.88;5113909;28;20015;-71
2021/06/07 03:37:40;;;;;;;25.30;16.55;;;;;;;18.74;71.69;99561.78;5107910;28;20110;-71
2021/06/07 03:40:09;;;;;;;21.77;16.17;;;;;;;18.84;71.62;99565.09;5113180;28;20423;-71
2021/06/07 03:42:34;;;;;;;34.42;17.17;;;;;;;18.89;71.86;99562.75;5112070;28;20042;-70
2021/06/07 03:45:00;;;;;;;22.10;17.98;;;;;;;18.92;71.56;99566.81;5113492;28;20020;-73
2021/06/07 03:47:25;;;;;;;27.05;18.00;;;;;;;18.91;71.41;99560.31;5112277;28;20027;-71
2021/06/07 03:49:51;;;;;;;25.45;17.52;;;;;;;18.93;71.70;99566.41;5113439;28;20042;-73
2021/06/07 03:52:16;;;;;;;22.70;17.27;;;;;;;19.02;71.67;99560.47;5114046;28;20043;-71
2021/06/07 03:54:42;;;;;;;25.70;17.10;;;;;;;19.16;71.21;99564.63;5113227;28;20072;-71
2021/06/07 03:57:08;;;;;;;23.83;17.48;;;;;;;19.24;70.48;99559.84;5112281;28;20043;-73
2021/06/07 03:59:34;;;;;;;25.38;18.23;;;;;;;19.33;70.39;99563.16;5112005;28;20032;-73
2021/06/07 04:02:02;;;;;;;29.05;17.75;;;;;;;19.41;70.73;99566.88;5112137;28;20027;-71
2021/06/07 04:04:29;;;;;;;27.50;17.67;;;;;;;19.50;69.92;99568.16;5111816;28;20035;-73
2021/06/07 04:06:54;;;;;;;30.10;17.80;;;;;;;19.55;69.77;99569.81;5113388;28;20027;-71
2021/06/07 04:09:21;;;;;;;28.67;15.98;;;;;;;19.61;69.52;99573.91;5111860;28;20042;-73
2021/06/07 04:11:47;;;;;;;28.30;18.10;;;;;;;19.66;69.47;99572.69;5113192;28;20024;-73
2021/06/07 04:14:12;;;;;;;18.33;16.00;;;;;;;19.69;69.38;99569.09;5113101;28;20028;-72
2021/06/07 04:16:38;;;;;;;19.48;15.85;;;;;;;19.63;68.81;99576.34;5113183;28;20050;-73
2021/06/07 04:19:03;;;;;;;23.33;17.88;;;;;;;19.63;69.04;99576.34;5113172;28;20059;-73
2021/06/07 04:21:29;;;;;;;22.80;15.32;;;;;;;19.56;68.88;99574.25;5112713;28;20023;-71
2021/06/07 04:23:54;;;;;;;26.17;16.95;;;;;;;19.50;69.19;99570.97;5111396;28;20019;-73
2021/06/07 04:26:20;;;;;;;20.58;16.95;;;;;;;19.57;69.12;99578.72;5100821;28;20040;-73
2021/06/07 04:28:45;;;;;;;23.63;16.35;;;;;;;19.58;68.65;99573.88;5106965;28;20052;-71
2021/06/07 04:31:11;;;;;;;22.77;15.75;;;;;;;19.50;68.78;99573.81;5111682;28;20394;-73
2021/06/07 04:33:36;;;;;;;21.52;14.70;;;;;;;19.12;69.49;99581.63;5110262;28;20020;-71
2021/06/07 04:36:02;;;;;;;29.02;16.83;;;;;;;19.16;70.54;99579.63;5110223;28;20066;-71
2021/06/07 04:38:28;;;;;;;17.23;15.43;;;;;;;19.24;70.22;99579.69;5111517;28;20035;-72
2021/06/07 04:40:53;;;;;;;21.52;15.77;;;;;;;19.27;69.95;99571.22;5110110;28;20035;-71
2021/06/07 04:43:19;;;;;;;26.42;16.15;;;;;;;19.32;69.49;99579.34;5109737;28;20501;-73
2021/06/07 04:45:46;;;;;;;18.38;16.23;;;;;;;19.19;69.48;99578.84;5108593;28;20036;-73
2021/06/07 04:48:12;;;;;;;19.05;17.05;;;;;;;19.10;70.30;99589.69;5112417;28;20030;-73
2021/06/07 04:50:38;;;;;;;18.38;16.42;;;;;;;19.06;70.12;99588.81;5112575;28;20405;-71
2021/06/07 04:53:06;;;;;;;17.08;15.18;;;;;;;19.13;70.27;99597.41;5112162;28;20047;-73
2021/06/07 04:55:37;;;;;;;22.77;15.85;;;;;;;19.18;70.07;99590.56;5112293;28;20055;-73
2021/06/07 04:58:11;;;;;;;21.17;15.68;;;;;;;19.19;70.98;99590.19;5110819;28;20068;-71
2021/06/07 05:00:39;;;;;;;23.65;16.45;;;;;;;19.22;70.81;99592.22;5110783;28;20027;-73
2021/06/07 05:03:05;;;;;;;18.15;16.20;;;;;;;19.17;70.17;99592.56;5111866;28;20031;-71
2021/06/07 05:05:32;;;;;;;20.17;16.10;;;;;;;19.19;69.68;99590.19;5104940;28;20394;-78
2021/06/07 05:07:57;;;;;;;17.00;15.05;;;;;;;19.24;69.82;99588.19;5100247;28;20462;-74
2021/06/07 05:10:23;;;;;;;21.58;16.17;;;;;;;19.25;69.93;99596.31;5101013;28;20040;-71
2021/06/07 05:12:49;;;;;;;19.02;15.20;;;;;;;19.36;69.16;99591.53;5100758;28;20486;-74
2021/06/07 05:15:16;;;;;;;21.55;15.93;;;;;;;19.40;68.32;99585.09;5098847;28;20111;-74
2021/06/07 05:17:42;;;;;;;21.35;15.80;;;;;;;19.38;68.30;99593.97;5094759;28;20085;-71
2021/06/07 05:20:10;;;;;;;17.90;15.82;;;;;;;19.36;68.18;99599.22;5100606;28;20028;-73
2021/06/07 05:22:36;;;;;;;18.77;15.40;;;;;;;19.44;68.86;99597.28;5109301;28;20420;-74
2021/06/07 05:25:04;;;;;;;25.10;15.50;;;;;;;19.53;68.31;99594.91;5100957;28;20016;-71
2021/06/07 05:27:29;;;;;;;16.98;15.18;;;;;;;19.54;68.04;99601.38;5097049;28;20039;-71
2021/06/07 05:29:55;;;;;;;23.60;14.82;;;;;;;19.60;68.96;99608.34;5099352;28;20405;-75
2021/06/07 05:32:20;;;;;;;18.88;14.57;;;;;;;19.62;66.87;99603.91;5105092;28;20144;-77
2021/06/07 05:34:46;;;;;;;19.85;15.80;;;;;;;19.63;67.22;99614.03;5095876;28;20121;-72
2021/06/07 05:37:11;;;;;;;20.13;15.60;;;;;;;19.75;67.49;99615.75;5096783;28;20028;-73
2021/06/07 05:39:36;;;;;;;25.80;15.80;;;;;;;19.85;67.08;99616.22;5094330;28;20458;-72
2021/06/07 05:42:02;;;;;;;20.42;15.70;;;;;;;19.83;66.91;99612.97;5097050;28;20038;-72
2021/06/07 05:44:28;;;;;;;24.65;15.18;;;;;;;19.76;67.07;99613.72;5095631;28;20032;-72
2021/06/07 05:46:53;;;;;;;21.58;14.52;;;;;;;19.83;67.15;99618.63;5106469;28;20220;-72
2021/06/07 05:49:19;;;;;;;18.40;15.15;;;;;;;19.83;67.67;99613.75;5109840;28;20019;-72
2021/06/07 05:51:45;;;;;;;27.60;16.90;;;;;;;19.96;68.05;99617.13;5111567;28;20127;-72
2021/06/07 05:54:11;;;;;;;21.30;16.63;;;;;;;20.06;67.80;99616.38;5110014;28;20038;-71
2021/06/07 05:56:37;;;;;;;19.55;14.20;;;;;;;19.87;66.56;99622.31;5090391;28;20036;-71
2021/06/07 05:59:07;;;;;;;26.48;14.57;;;;;;;20.04;66.86;99615.97;5100527;28;20019;-72
2021/06/07 06:01:33;;;;;;;;;;;;;;;20.16;66.41;99609.13;5108412;28;20036;-71
2021/06/07 06:04:00;;;;;;;15.77;13.88;;;;;;;20.15;65.08;99606.69;5102327;28;19916;-70
2021/06/07 06:06:26;;;;;;;15.38;13.77;;;;;;;20.24;64.55;99609.97;5108158;28;20028;-70
2021/06/07 06:08:52;;;;;;;15.95;14.32;;;;;;;20.24;63.96;99609.97;5110259;28;20020;-70
2021/06/07 06:11:19;;;;;;;18.88;14.68;;;;;;;20.16;64.70;99614.81;5100334;27;20024;-71
2021/06/07 06:13:45;;;;;;;18.67;14.30;;;;;;;20.32;65.14;99613.66;5095532;28;20024;-73
2021/06/07 06:16:11;;;;;;;16.80;15.00;;;;;;;20.45;64.46;99614.13;5092934;28;20540;-71
2021/06/07 06:18:38;;;;;;;16.65;14.68;;;;;;;20.55;64.19;99621.91;5097546;28;20020;-71
2021/06/07 06:21:04;;;;;;;17.85;16.02;;;;;;;20.55;65.36;99619.06;5094237;28;20027;-71
2021/06/07 06:23:30;;;;;;;16.77;15.18;;;;;;;20.60;65.35;99621.50;5097554;28;20576;-72
2021/06/07 06:25:55;;;;;;;20.85;16.85;;;;;;;20.73;63.57;99619.13;5092794;28;20123;-71
2021/06/07 06:28:21;;;;;;;22.50;14.52;;;;;;;20.76;63.47;99614.66;5096228;28;20059;-71
2021/06/07 06:30:46;;;;;;;15.63;13.63;;;;;;;20.77;62.81;99619.13;5095079;28;20093;-71
2021/06/07 06:33:12;;;;;;;16.08;14.50;;;;;;;20.82;63.71;99612.28;5092803;28;20032;-69
2021/06/07 06:35:37;;;;;;;16.63;14.73;;;;;;;20.93;63.27;99612.28;5096032;28;20397;-71
2021/06/07 06:38:04;;;;;;;15.40;14.00;;;;;;;21.05;63.55;99611.91;5093986;28;20494;-75
2021/06/07 06:40:32;;;;;;;34.90;15.48;;;;;;;21.15;60.91;99604.59;5096069;28;20122;-69
2021/06/07 06:42:59;;;;;;;16.42;12.43;;;;;;;21.18;57.33;99606.66;5093889;28;20387;-72
2021/06/07 06:45:25;;;;;;;749.22;81.55;;;;;;;21.13;59.61;99613.56;5094623;28;20047;-71
2021/06/07 06:47:56;;;;;;;42.92;15.15;;;;;;;21.27;59.83;99612.75;5110368;28;20074;-69
2021/06/07 06:50:26;;;;;;;17.10;14.30;;;;;;;21.28;59.48;99608.66;5109165;28;20122;-69
2021/06/07 06:52:51;;;;;;;14.45;13.05;;;;;;;21.38;58.17;99612.75;5110256;28;20019;-68
2021/06/07 06:55:17;;;;;;;14.60;13.10;;;;;;;21.44;59.38;99611.13;5110439;28;20394;-72
2021/06/07 06:57:42;;;;;;;15.88;12.65;;;;;;;21.41;57.95;99611.94;5109135;28;20023;-69
2021/06/07 07:00:09;;;;;;;22.05;13.85;;;;;;;21.42;59.10;99618.47;5110440;28;20114;-70
2021/06/07 07:02:36;;;;;;;15.80;13.02;;;;;;;21.44;59.06;99613.16;5108773;28;20538;-71
2021/06/07 07:05:02;;;;;;;16.20;13.70;;;;;;;21.50;59.38;99605.03;5110463;28;20095;-70
2021/06/07 07:07:28;;;;;;;19.30;14.32;;;;;;;21.61;60.01;99611.53;5111424;28;20060;-71
2021/06/07 07:09:53;;;;;;;19.75;13.55;;;;;;;21.71;58.51;99610.72;5112950;28;20027;-69
2021/06/07 07:12:23;;;;;;;13.98;12.57;;;;;;;21.81;58.81;99611.13;5114719;28;20031;-71
2021/06/07 07:14:49;;;;;;;16.17;14.48;;;;;;;21.95;57.58;99604.59;5104034;28;20042;-71
2021/06/07 07:17:14;;;;;;;14.27;12.88;;;;;;;21.93;58.06;99602.16;5099555;28;20032;-68
2021/06/07 07:19:41;;;;;;;15.00;13.60;;;;;;;21.96;57.33;99598.50;5098845;28;20517;-70
2021/06/07 07:22:08;;;;;;;12.95;11.20;;;;;;;21.94;57.67;99603.78;5104553;28;20031;-70
2021/06/07 07:24:33;;;;;;;15.18;13.77;;;;;;;22.06;58.18;99607.41;5105844;28;20042;-69
2021/06/07 07:27:00;;;;;;;15.23;13.63;;;;;;;22.01;57.37;99605.78;5095370;28;20040;-73
2021/06/07 07:29:26;;;;;;;13.63;12.40;;;;;;;22.19;55.47;99602.09;5093017;28;20506;-72
2021/06/07 07:31:52;;;;;;;14.98;13.52;;;;;;;22.19;56.47;99611.44;5092073;28;20547;-72
2021/06/07 07:34:18;;;;;;;14.90;13.05;;;;;;;22.24;55.00;99601.66;5092940;28;20520;-71
2021/06/07 07:36:43;;;;;;;13.85;12.65;;;;;;;22.10;57.39;99611.09;5092178;28;20028;-72
2021/06/07 07:39:09;;;;;;;15.02;13.63;;;;;;;22.09;58.34;99610.25;5092464;28;20035;-72
2021/06/07 07:41:34;;;;;;;13.48;12.27;;;;;;;22.23;55.39;99608.59;5092561;28;20517;-71
2021/06/07 07:44:00;;;;;;;15.07;13.68;;;;;;;22.18;55.37;99614.72;5091981;28;20064;-71
2021/06/07 07:46:25;;;;;;;18.25;12.65;;;;;;;22.23;55.25;99606.56;5100232;28;20413;-75
2021/06/07 07:48:51;;;;;;;26.15;13.90;;;;;;;22.22;56.06;99607.78;5112358;28;20031;-72
2021/06/07 07:51:16;;;;;;;13.90;12.48;;;;;;;22.24;55.31;99610.22;5112180;28;20019;-73
2021/06/07 07:53:42;;;;;;;88.25;18.17;;;;;;;22.19;55.62;99613.50;5113614;28;20277;-72
2021/06/07 07:56:09;;;;;;;35.13;13.88;;;;;;;22.25;55.18;99606.97;5113467;28;20038;-72
2021/06/07 07:58:34;;;;;;;17.83;14.07;;;;;;;22.30;55.44;99609.38;5113439;28;20096;-72
2021/06/07 08:01:00;;;;;;;16.05;12.82;;;;;;;22.37;55.85;99607.75;5113169;28;20116;-72
2021/06/07 08:03:26;;;;;;;15.30;13.70;;;;;;;22.39;53.86;99610.97;5113473;28;20103;-71
2021/06/07 08:05:51;;;;;;;17.30;12.15;;;;;;;22.43;52.73;99620.31;5113539;28;20028;-71
2021/06/07 08:08:17;;;;;;;14.77;13.23;;;;;;;22.34;54.55;99620.75;5111768;28;20027;-71
2021/06/07 08:10:43;;;;;;;14.48;12.65;;;;;;;22.46;54.14;99621.53;5111675;28;20028;-68
2021/06/07 08:13:08;;;;;;;14.57;13.10;;;;;;;22.42;55.57;99619.53;5096269;28;20020;-74
2021/06/07 08:15:34;;;;;;;16.90;13.18;;;;;;;22.41;56.08;99623.59;5113016;28;20096;-69
2021/06/07 08:18:00;;;;;;;12.85;11.70;;;;;;;22.46;55.43;99619.50;5111032;28;20416;-72
2021/06/07 08:20:26;;;;;;;13.20;11.98;;;;;;;22.41;55.34;99622.78;5113082;28;20031;-73
2021/06/07 08:22:54;;;;;;;15.38;13.65;;;;;;;22.43;54.93;99628.88;5112843;28;20031;-74
2021/06/07 08:25:23;;;;;;;13.95;12.65;;;;;;;22.16;55.84;99626.50;5110908;28;20019;-69
2021/06/07 08:27:49;;;;;;;15.75;12.85;;;;;;;22.22;57.34;99624.06;5111827;28;20581;-73
2021/06/07 08:30:16;;;;;;;14.00;12.60;;;;;;;21.93;59.26;99621.28;5101402;28;20024;-78
2021/06/07 08:32:42;;;;;;;15.20;13.65;;;;;;;21.84;60.01;99627.38;5111483;28;20032;-83
2021/06/07 08:35:09;;;;;;;16.02;14.07;;;;;;;22.01;58.79;99635.09;5101851;28;20134;-76
2021/06/07 08:37:35;;;;;;;16.42;14.60;;;;;;;21.98;60.35;99627.38;5103026;28;20107;-75
2021/06/07 08:40:03;;;;;;;18.77;15.65;;;;;;;21.82;61.96;99636.34;5111012;28;20115;-76
2021/06/07 08:42:28;;;;;;;24.90;15.93;;;;;;;21.61;63.43;99648.53;5111119;28;20047;-78
2021/06/07 08:44:54;;;;;;;23.02;16.63;;;;;;;21.65;63.60;99631.44;5109669;28;20042;-75
2021/06/07 08:47:20;;;;;;;18.20;16.25;;;;;;;21.60;63.80;99636.31;5110810;28;20485;-79
2021/06/07 08:49:46;;;;;;;17.25;15.40;;;;;;;21.60;63.36;99635.53;5111061;28;20031;-74
2021/06/07 08:52:13;;;;;;;18.02;16.23;;;;;;;21.53;64.18;99636.31;5104582;28;20409;-71
2021/06/07 08:54:38;;;;;;;18.73;16.17;;;;;;;21.80;62.85;99629.44;5112014;28;20051;-77
2021/06/07 08:57:05;;;;;;;16.42;14.82;;;;;;;21.83;62.74;99637.16;5104155;28;20062;-77
2021/06/07 08:59:30;;;;;;;24.25;16.67;;;;;;;21.72;62.59;99637.16;5096181;28;20024;-77
2021/06/07 09:02:01;;;;;;;15.88;14.38;;;;;;;21.78;61.83;99634.72;5110750;28;20039;-73
2021/06/07 09:04:26;;;;;;;18.83;15.07;;;;;;;21.89;61.57;99624.13;5110673;28;20028;-75
2021/06/07 09:06:53;;;;;;;17.80;15.57;;;;;;;21.87;61.34;99620.91;5103434;28;20036;-74
2021/06/07 09:09:24;;;;;;;16.27;14.80;;;;;;;21.74;62.20;99624.16;5106903;28;20024;-73
2021/06/07 09:12:00;;;;;;;18.65;16.70;;;;;;;21.76;62.25;99620.09;5098422;28;20051;-80
2021/06/07 09:14:29;;;;;;;17.45;15.63;;;;;;;21.77;62.75;99618.88;5106598;27;20099;-78
2021/06/07 09:16:56;;;;;;;19.23;15.63;;;;;;;21.86;61.74;99619.28;5096289;28;20027;-72
2021/06/07 09:19:25;;;;;;;19.08;17.00;;;;;;;21.85;62.75;99611.97;5106716;28;20051;-73
2021/06/07 09:21:53;;;;;;;22.83;17.13;;;;;;;21.96;61.88;99607.06;5108129;28;20024;-82
2021/06/07 09:24:19;;;;;;;18.05;16.25;;;;;;;22.11;62.62;99602.13;5107373;28;20042;-74
2021/06/07 09:26:47;;;;;;;18.48;16.00;;;;;;;22.35;62.78;99604.50;5104504;28;20032;-77
2021/06/07 09:29:24;;;;;;;21.20;14.38;;;;;;;22.44;62.08;99599.16;5108069;28;20063;-76
2021/06/07 09:31:56;;;;;;;18.70;14.90;;;;;;;22.58;62.65;99595.47;5106253;28;20028;-71
2021/06/07 09:34:30;;;;;;;16.42;13.60;;;;;;;22.48;62.00;99596.28;5108704;28;20450;-72
2021/06/07 09:37:05;;;;;;;18.05;15.93;;;;;;;22.34;63.31;99594.31;5107037;28;20031;-72
2021/06/07 09:39:30;;;;;;;22.20;16.20;;;;;;;22.37;62.19;99590.66;5106954;28;20039;-75
2021/06/07 09:41:56;;;;;;;17.17;15.57;;;;;;;22.36;63.67;99591.88;5106826;27;20032;-72
2021/06/07 09:44:23;;;;;;;15.48;13.85;;;;;;;22.29;62.16;99593.50;5106868;28;20270;-75
2021/06/07 09:46:50;;;;;;;16.85;15.13;;;;;;;22.51;62.33;99587.75;5108899;28;20032;-72
2021/06/07 09:49:22;;;;;;;18.13;15.88;;;;;;;22.21;62.95;99586.25;5109037;28;20065;-72
2021/06/07 09:51:59;;;;;;;19.65;16.75;;;;;;;22.36;63.19;99583.31;5109817;28;20023;-71
2021/06/07 09:54:27;;;;;;;19.88;17.85;;;;;;;22.42;62.97;99578.81;5111032;28;20521;-72
2021/06/07 09:56:55;;;;;;;17.15;15.35;;;;;;;22.53;62.71;99582.44;5110125;28;20081;-75
2021/06/07 09:59:26;;;;;;;19.15;16.65;;;;;;;22.42;61.97;99573.09;5110139;28;20088;-72
2021/06/07 10:01:51;;;;;;;18.25;16.23;;;;;;;22.34;62.37;99572.34;5099465;28;20058;-72
2021/06/07 10:04:17;;;;;;;19.55;17.67;;;;;;;22.65;62.27;99571.81;5106879;28;20635;-75
2021/06/07 10:06:43;;;;;;;23.20;17.38;;;;;;;22.62;60.92;99581.19;5111309;28;20031;-72
2021/06/07 10:09:10;;;;;;;21.83;19.10;;;;;;;22.58;61.58;99576.34;5104480;28;20035;-73
2021/06/07 10:11:45;;;;;;;19.85;17.55;;;;;;;22.70;61.71;99577.88;5109293;28;20045;-78
2021/06/07 10:14:21;;;;;;;20.13;18.02;;;;;;;22.63;60.98;99574.25;5109652;28;20493;-78
2021/06/07 10:16:59;;;;;;;18.33;16.70;;;;;;;22.79;60.76;99577.41;5111087;28;20046;-78
2021/06/07 10:19:35;;;;;;;20.27;18.17;;;;;;;22.86;60.93;99574.53;5109643;28;20054;-74
2021/06/07 10:22:02;;;;;;;20.80;18.52;;;;;;;22.89;62.79;99586.31;5111222;28;20085;-78
2021/06/07 10:24:27;;;;;;;22.38;19.05;;;;;;;23.05;61.76;99580.94;5110738;28;20031;-77
2021/06/07 10:26:53;;;;;;;20.55;18.55;;;;;;;23.25;60.38;99586.91;5110895;28;20020;-74
2021/06/07 10:29:19;;;;;;;23.50;18.42;;;;;;;23.15;61.12;99584.94;5110623;28;20556;-78
2021/06/07 10:31:46;;;;;;;23.40;19.50;;;;;;;23.26;60.23;99582.81;5110962;28;20064;-74
2021/06/07 10:34:11;;;;;;;21.48;19.27;;;;;;;23.46;58.89;99590.03;5104517;28;20034;-75
2021/06/07 10:36:47;;;;;;;21.70;18.95;;;;;;;23.49;59.69;99592.03;5097799;28;20040;-73
2021/06/07 10:39:19;;;;;;;21.45;19.15;;;;;;;23.41;59.86;99586.41;5099126;28;20077;-72
2021/06/07 10:41:57;;;;;;;19.15;17.25;;;;;;;23.46;57.79;99584.31;5104347;27;20055;-74
2021/06/07 10:44:40;;;;;;;21.52;19.33;;;;;;;23.38;59.49;99581.50;5106418;28;20032;-73
2021/06/07 10:47:10;;;;;;;20.92;18.55;;;;;;;23.36;57.57;99589.69;5110296;28;20036;-73
2021/06/07 10:49:40;;;;;;;24.87;17.47;;;;;;;23.47;58.80;99585.94;5113608;28;20030;-75
2021/06/07 10:52:11;;;;;;;21.17;16.77;;;;;;;23.49;57.31;99583.47;5112503;28;20038;-75
2021/06/07 10:54:38;;;;;;;21.70;17.35;;;;;;;23.50;58.01;99582.22;5114068;28;20373;-75
2021/06/07 10:57:22;;;;;;;20.08;17.45;;;;;;;23.54;56.03;99583.03;5108664;28;20506;-75
2021/06/07 10:59:50;;;;;;;19.90;17.65;;;;;;;23.45;56.41;99583.50;5110731;28;20577;-75
2021/06/07 11:02:18;;;;;;;19.75;17.75;;;;;;;23.44;57.38;99589.63;5112951;28;20334;-75
2021/06/07 11:04:44;;;;;;;22.48;18.70;;;;;;;23.44;57.46;99593.28;5112571;28;20078;-75
2021/06/07 11:07:10;;;;;;;19.88;17.48;;;;;;;23.42;57.10;99599.44;5103418;28;20505;-75
2021/06/07 11:09:56;;;;;;;19.75;17.58;;;;;;;23.39;57.36;99599.47;5113047;28;20253;-74
2021/06/07 11:12:33;;;;;;;20.67;17.85;;;;;;;23.38;58.75;99600.69;5104964;28;20035;-75
2021/06/07 11:15:13;;;;;;;26.08;19.30;;;;;;;23.20;60.28;99609.34;5112379;28;20100;-73
2021/06/07 11:17:38;;;;;;;;;;;;;;;23.18;61.97;99603.25;5113349;28;20048;-76